Kezdőlap
METAR-TAF:

METAR-TAF

Repülőterek :

Williams Field, Antarktisz

földrajzi szélesség: 77-52S, földrajzi hosszúság: 166-58E, magasság: 8 m

Jelenlegi meteorológiai megfigyelések

A jelentés 21 perccel ezelõtt készült, 19:55 UTC
Északkeleti szél 5 kt
Hőmérséklet -18°C
Páratartalom 77%
Légköri nyomás 993 hPa
Látótávolság 10 km, vagy több
Derült ég

METAR: NZCM 191955Z AUTO 05005KT 9999 CLR M18/M21 A2933 RMK AO2 SLP937 T11821214 $

Idő: 20:16 (20:16 UTC)


TAF: hiányzik

Meteorológiai megfigyelések és előrejelzések több, mint 4000 repülőtéren (METAR és TAF jelentéseket).

A térképen piros és sárga pontok jelzik az elérhető meteorológiai állomásokat.

Mozgassa az egeret a pont fölött, hogy megjelenjen az állomás neve.

Azután kattintson az időjárási megfigyelések és előrejelzések megtekintéséhez.

A térkép megváltoztatása: kattintson a fekete keresztel jelölt zöld gombra ráközelítéshez, a vonallal jelölt zöld gombra távolításhoz, vagy a zöld nyilakra a szomszédos térképek eléréséhez.


METAR-TAF: